sensor_id;sensor_type;location;lat;lon;timestamp;pressure;altitude;pressure_sealevel;temperature;humidity
62418;BME280;48456;54.242;10.280;2023-05-07T00:01:34;102156.13;;;6.84;100.00
62418;BME280;48456;54.242;10.280;2023-05-07T00:04:00;102158.81;;;6.86;100.00
62418;BME280;48456;54.242;10.280;2023-05-07T00:06:27;102151.59;;;6.80;100.00
62418;BME280;48456;54.242;10.280;2023-05-07T00:08:56;102156.28;;;6.89;100.00
62418;BME280;48456;54.242;10.280;2023-05-07T00:11:22;102164.00;;;6.84;100.00
62418;BME280;48456;54.242;10.280;2023-05-07T00:13:49;102162.53;;;6.93;100.00
62418;BME280;48456;54.242;10.280;2023-05-07T00:16:15;102159.91;;;6.93;100.00
62418;BME280;48456;54.242;10.280;2023-05-07T00:18:42;102160.63;;;6.88;100.00
62418;BME280;48456;54.242;10.280;2023-05-07T00:21:08;102161.63;;;6.92;100.00
62418;BME280;48456;54.242;10.280;2023-05-07T00:23:34;102163.28;;;6.88;100.00
62418;BME280;48456;54.242;10.280;2023-05-07T00:26:01;102165.09;;;6.91;100.00
62418;BME280;48456;54.242;10.280;2023-05-07T00:28:27;102163.38;;;6.92;100.00
62418;BME280;48456;54.242;10.280;2023-05-07T00:30:53;102167.78;;;6.93;100.00
62418;BME280;48456;54.242;10.280;2023-05-07T00:33:20;102177.41;;;6.92;100.00
62418;BME280;48456;54.242;10.280;2023-05-07T00:35:46;102166.88;;;6.92;100.00
62418;BME280;48456;54.242;10.280;2023-05-07T00:38:13;102165.22;;;6.94;100.00
62418;BME280;48456;54.242;10.280;2023-05-07T00:40:39;102171.38;;;6.95;100.00
62418;BME280;48456;54.242;10.280;2023-05-07T00:43:06;102161.78;;;6.97;100.00
62418;BME280;48456;54.242;10.280;2023-05-07T00:45:32;102163.38;;;6.92;100.00
62418;BME280;48456;54.242;10.280;2023-05-07T00:47:59;102162.53;;;6.93;100.00
62418;BME280;48456;54.242;10.280;2023-05-07T00:50:26;102163.50;;;6.95;100.00
62418;BME280;48456;54.242;10.280;2023-05-07T00:52:53;102152.97;;;6.95;100.00
62418;BME280;48456;54.242;10.280;2023-05-07T00:55:20;102149.19;;;6.86;100.00
62418;BME280;48456;54.242;10.280;2023-05-07T00:57:46;102149.25;;;6.89;100.00
62418;BME280;48456;54.242;10.280;2023-05-07T01:00:13;102152.91;;;6.93;100.00
62418;BME280;48456;54.242;10.280;2023-05-07T01:02:40;102150.41;;;6.98;100.00
62418;BME280;48456;54.242;10.280;2023-05-07T01:05:08;102153.72;;;6.91;100.00
62418;BME280;48456;54.242;10.280;2023-05-07T01:07:35;102157.28;;;6.93;100.00
62418;BME280;48456;54.242;10.280;2023-05-07T01:10:03;102149.44;;;6.94;100.00
62418;BME280;48456;54.242;10.280;2023-05-07T01:12:30;102146.81;;;6.94;100.00
62418;BME280;48456;54.242;10.280;2023-05-07T01:14:57;102147.53;;;6.90;100.00
62418;BME280;48456;54.242;10.280;2023-05-07T01:17:24;102146.75;;;6.93;100.00
62418;BME280;48456;54.242;10.280;2023-05-07T01:19:50;102154.06;;;7.01;100.00
62418;BME280;48456;54.242;10.280;2023-05-07T01:22:29;102153.44;;;7.10;100.00
62418;BME280;48456;54.242;10.280;2023-05-07T01:24:57;102140.38;;;7.13;100.00
62418;BME280;48456;54.242;10.280;2023-05-07T01:27:25;102136.84;;;7.13;100.00
62418;BME280;48456;54.242;10.280;2023-05-07T01:29:51;102128.22;;;7.17;100.00
62418;BME280;48456;54.242;10.280;2023-05-07T01:32:19;102129.13;;;7.18;100.00
62418;BME280;48456;54.242;10.280;2023-05-07T01:34:47;102125.69;;;7.20;100.00
62418;BME280;48456;54.242;10.280;2023-05-07T01:37:14;102123.91;;;7.19;100.00
62418;BME280;48456;54.242;10.280;2023-05-07T01:39:41;102121.31;;;7.21;100.00
62418;BME280;48456;54.242;10.280;2023-05-07T01:42:08;102122.19;;;7.21;100.00
62418;BME280;48456;54.242;10.280;2023-05-07T01:44:34;102119.63;;;7.23;100.00
62418;BME280;48456;54.242;10.280;2023-05-07T01:47:01;102123.19;;;7.25;100.00
62418;BME280;48456;54.242;10.280;2023-05-07T01:49:28;102118.81;;;7.25;100.00
62418;BME280;48456;54.242;10.280;2023-05-07T01:51:54;102122.31;;;7.24;100.00
62418;BME280;48456;54.242;10.280;2023-05-07T01:54:25;102121.44;;;7.25;100.00
62418;BME280;48456;54.242;10.280;2023-05-07T01:56:54;102125.88;;;7.26;100.00
62418;BME280;48456;54.242;10.280;2023-05-07T01:59:21;102116.13;;;7.24;100.00
62418;BME280;48456;54.242;10.280;2023-05-07T02:01:47;102118.81;;;7.25;100.00
62418;BME280;48456;54.242;10.280;2023-05-07T02:04:14;102122.41;;;7.27;100.00
62418;BME280;48456;54.242;10.280;2023-05-07T02:06:40;102129.44;;;7.28;100.00
62418;BME280;48456;54.242;10.280;2023-05-07T02:09:07;102136.41;;;7.26;100.00
62418;BME280;48456;54.242;10.280;2023-05-07T02:11:35;102126.75;;;7.27;100.00
62418;BME280;48456;54.242;10.280;2023-05-07T02:14:01;102123.25;;;7.26;100.00
62418;BME280;48456;54.242;10.280;2023-05-07T02:16:27;102124.19;;;7.28;100.00
62418;BME280;48456;54.242;10.280;2023-05-07T02:18:54;102132.13;;;7.30;100.00
62418;BME280;48456;54.242;10.280;2023-05-07T02:21:21;102129.50;;;7.30;100.00
62418;BME280;48456;54.242;10.280;2023-05-07T02:23:47;102129.50;;;7.30;100.00
62418;BME280;48456;54.242;10.280;2023-05-07T02:26:13;102137.44;;;7.32;100.00
62418;BME280;48456;54.242;10.280;2023-05-07T02:28:40;102129.53;;;7.32;100.00
62418;BME280;48456;54.242;10.280;2023-05-07T02:31:06;102135.78;;;7.35;100.00
62418;BME280;48456;54.242;10.280;2023-05-07T02:33:32;102142.88;;;7.38;100.00
62418;BME280;48456;54.242;10.280;2023-05-07T02:36:10;102141.09;;;7.37;100.00
62418;BME280;48456;54.242;10.280;2023-05-07T02:38:36;102141.16;;;7.38;100.00
62418;BME280;48456;54.242;10.280;2023-05-07T02:41:03;102136.69;;;7.36;100.00
62418;BME280;48456;54.242;10.280;2023-05-07T02:43:29;102150.84;;;7.39;100.00
62418;BME280;48456;54.242;10.280;2023-05-07T02:46:03;102147.28;;;7.39;100.00
62418;BME280;48456;54.242;10.280;2023-05-07T02:48:30;102150.84;;;7.39;100.00
62418;BME280;48456;54.242;10.280;2023-05-07T02:50:57;102140.25;;;7.38;100.00
62418;BME280;48456;54.242;10.280;2023-05-07T02:53:23;102141.16;;;7.38;100.00
62418;BME280;48456;54.242;10.280;2023-05-07T02:55:55;102143.84;;;7.40;100.00
62418;BME280;48456;54.242;10.280;2023-05-07T02:58:22;102146.53;;;7.41;100.00
62418;BME280;48456;54.242;10.280;2023-05-07T03:00:48;102150.03;;;7.42;100.00
62418;BME280;48456;54.242;10.280;2023-05-07T03:03:14;102152.66;;;7.42;100.00
62418;BME280;48456;54.242;10.280;2023-05-07T03:05:41;102146.53;;;7.41;100.00
62418;BME280;48456;54.242;10.280;2023-05-07T03:08:07;102145.63;;;7.41;100.00
62418;BME280;48456;54.242;10.280;2023-05-07T03:10:34;102144.81;;;7.44;100.00
62418;BME280;48456;54.242;10.280;2023-05-07T03:13:01;102145.66;;;7.43;100.00
62418;BME280;48456;54.242;10.280;2023-05-07T03:15:27;102135.09;;;7.41;100.00
62418;BME280;48456;54.242;10.280;2023-05-07T03:17:54;102147.41;;;7.42;100.00
62418;BME280;48456;54.242;10.280;2023-05-07T03:20:21;102144.75;;;7.42;100.00
62418;BME280;48456;54.242;10.280;2023-05-07T03:22:48;102144.75;;;7.42;100.00
62418;BME280;48456;54.242;10.280;2023-05-07T03:25:14;102141.25;;;7.41;100.00
62418;BME280;48456;54.242;10.280;2023-05-07T03:27:41;102143.03;;;7.43;100.00
62418;BME280;48456;54.242;10.280;2023-05-07T03:30:10;102145.63;;;7.41;100.00
62418;BME280;48456;54.242;10.280;2023-05-07T03:32:37;102143.84;;;7.40;100.00
62418;BME280;48456;54.242;10.280;2023-05-07T03:35:04;102144.75;;;7.42;100.00
62418;BME280;48456;54.242;10.280;2023-05-07T03:37:30;102148.31;;;7.43;100.00
62418;BME280;48456;54.242;10.280;2023-05-07T03:39:57;102141.31;;;7.45;100.00
62418;BME280;48456;54.242;10.280;2023-05-07T03:42:23;102151.84;;;7.45;100.00
62418;BME280;48456;54.242;10.280;2023-05-07T03:44:50;102151.91;;;7.46;100.00
62418;BME280;48456;54.242;10.280;2023-05-07T03:47:16;102147.50;;;7.45;100.00
62418;BME280;48456;54.242;10.280;2023-05-07T03:49:43;102151.03;;;7.46;100.00
62418;BME280;48456;54.242;10.280;2023-05-07T03:52:09;102151.03;;;7.46;100.00
62418;BME280;48456;54.242;10.280;2023-05-07T03:54:36;102150.19;;;7.47;100.00
62418;BME280;48456;54.242;10.280;2023-05-07T03:57:02;102153.69;;;7.47;100.00
62418;BME280;48456;54.242;10.280;2023-05-07T03:59:28;102152.00;;;7.49;100.00
62418;BME280;48456;54.242;10.280;2023-05-07T04:01:55;102152.91;;;7.50;100.00
62418;BME280;48456;54.242;10.280;2023-05-07T04:04:21;102155.50;;;7.48;100.00
62418;BME280;48456;54.242;10.280;2023-05-07T04:06:48;102159.00;;;7.49;100.00
62418;BME280;48456;54.242;10.280;2023-05-07T04:09:14;102155.53;;;7.50;100.00
62418;BME280;48456;54.242;10.280;2023-05-07T04:11:41;102157.31;;;7.51;100.00
62418;BME280;48456;54.242;10.280;2023-05-07T04:14:07;102147.59;;;7.48;100.00
62418;BME280;48456;54.242;10.280;2023-05-07T04:16:34;102148.56;;;7.52;100.00
62418;BME280;48456;54.242;10.280;2023-05-07T04:19:00;102152.13;;;7.52;100.00
62418;BME280;48456;54.242;10.280;2023-05-07T04:21:27;102159.16;;;7.53;100.00
62418;BME280;48456;54.242;10.280;2023-05-07T04:23:53;102153.94;;;7.55;100.00
62418;BME280;48456;54.242;10.280;2023-05-07T04:26:19;102160.13;;;7.57;100.00
62418;BME280;48456;54.242;10.280;2023-05-07T04:28:47;102162.06;;;7.63;100.00
62418;BME280;48456;54.242;10.280;2023-05-07T04:31:15;102166.34;;;7.59;100.00
62418;BME280;48456;54.242;10.280;2023-05-07T04:33:42;102177.91;;;7.64;100.00
62418;BME280;48456;54.242;10.280;2023-05-07T04:36:09;102175.28;;;7.64;100.00
62418;BME280;48456;54.242;10.280;2023-05-07T04:38:35;102178.78;;;7.63;100.00
62418;BME280;48456;54.242;10.280;2023-05-07T04:41:03;102177.91;;;7.64;100.00
62418;BME280;48456;54.242;10.280;2023-05-07T04:43:29;102178.72;;;7.62;100.00
62418;BME280;48456;54.242;10.280;2023-05-07T04:45:56;102182.31;;;7.65;100.00
62418;BME280;48456;54.242;10.280;2023-05-07T04:48:22;102178.84;;;7.66;100.00
62418;BME280;48456;54.242;10.280;2023-05-07T04:50:49;102177.09;;;7.67;100.00
62418;BME280;48456;54.242;10.280;2023-05-07T04:53:19;102180.59;;;7.66;100.00
62418;BME280;48456;54.242;10.280;2023-05-07T04:55:45;102173.66;;;7.70;100.00
62418;BME280;48456;54.242;10.280;2023-05-07T04:58:12;102183.41;;;7.72;100.00
62418;BME280;48456;54.242;10.280;2023-05-07T05:00:39;102185.22;;;7.73;100.00
62418;BME280;48456;54.242;10.280;2023-05-07T05:03:08;102184.41;;;7.76;100.00
62418;BME280;48456;54.242;10.280;2023-05-07T05:05:35;102188.88;;;7.78;100.00
62418;BME280;48456;54.242;10.280;2023-05-07T05:08:01;102187.97;;;7.78;100.00
62418;BME280;48456;54.242;10.280;2023-05-07T05:10:27;102188.16;;;7.84;100.00
62418;BME280;48456;54.242;10.280;2023-05-07T05:12:54;102192.63;;;7.87;100.00
62418;BME280;48456;54.242;10.280;2023-05-07T05:15:20;102185.59;;;7.87;100.00
62418;BME280;48456;54.242;10.280;2023-05-07T05:17:47;102190.91;;;7.89;100.00
62418;BME280;48456;54.242;10.280;2023-05-07T05:20:13;102195.41;;;7.93;100.00
62418;BME280;48456;54.242;10.280;2023-05-07T05:22:41;102191.97;;;7.96;100.00
62418;BME280;48456;54.242;10.280;2023-05-07T05:25:07;102197.25;;;7.96;100.00
62418;BME280;48456;54.242;10.280;2023-05-07T05:27:34;102195.53;;;7.96;100.00
62418;BME280;48456;54.242;10.280;2023-05-07T05:30:01;102202.63;;;7.99;100.00
62418;BME280;48456;54.242;10.280;2023-05-07T05:32:28;102200.88;;;7.99;100.00
62418;BME280;48456;54.242;10.280;2023-05-07T05:34:54;102210.47;;;7.97;100.00
62418;BME280;48456;54.242;10.280;2023-05-07T05:37:21;102209.72;;;8.01;100.00
62418;BME280;48456;54.242;10.280;2023-05-07T05:39:48;102207.19;;;8.04;100.00
62418;BME280;48456;54.242;10.280;2023-05-07T05:42:14;102199.31;;;8.06;100.00
62418;BME280;48456;54.242;10.280;2023-05-07T05:44:40;102209.09;;;8.10;100.00
62418;BME280;48456;54.242;10.280;2023-05-07T05:47:07;102204.00;;;8.16;100.00
62418;BME280;48456;54.242;10.280;2023-05-07T05:49:33;102202.34;;;8.20;100.00
62418;BME280;48456;54.242;10.280;2023-05-07T05:52:00;102213.78;;;8.21;100.00
62418;BME280;48456;54.242;10.280;2023-05-07T05:54:26;102212.09;;;8.23;100.00
62418;BME280;48456;54.242;10.280;2023-05-07T05:56:53;102215.75;;;8.28;100.00
62418;BME280;48456;54.242;10.280;2023-05-07T05:59:19;102218.38;;;8.28;100.00
62418;BME280;48456;54.242;10.280;2023-05-07T06:01:45;102212.09;;;8.23;100.00
62418;BME280;48456;54.242;10.280;2023-05-07T06:04:12;102208.53;;;8.22;100.00
62418;BME280;48456;54.242;10.280;2023-05-07T06:06:39;102222.75;;;8.27;100.00
62418;BME280;48456;54.242;10.280;2023-05-07T06:09:05;102220.25;;;8.32;100.00
62418;BME280;48456;54.242;10.280;2023-05-07T06:11:31;102213.25;;;8.34;100.00
62418;BME280;48456;54.242;10.280;2023-05-07T06:13:58;102211.66;;;8.39;100.00
62418;BME280;48456;54.242;10.280;2023-05-07T06:16:25;102214.41;;;8.44;100.00
62418;BME280;48456;54.242;10.280;2023-05-07T06:18:51;102215.38;;;8.46;100.00
62418;BME280;48456;54.242;10.280;2023-05-07T06:21:17;102213.88;;;8.56;100.00
62418;BME280;48456;54.242;10.280;2023-05-07T06:23:44;102207.16;;;8.67;100.00
62418;BME280;48456;54.242;10.280;2023-05-07T06:26:10;102219.66;;;8.75;100.00
62418;BME280;48456;54.242;10.280;2023-05-07T06:28:37;102218.66;;;8.71;100.00
62418;BME280;48456;54.242;10.280;2023-05-07T06:31:16;102216.25;;;8.79;100.00
62418;BME280;48456;54.242;10.280;2023-05-07T06:33:43;102216.34;;;8.83;100.00
62418;BME280;48456;54.242;10.280;2023-05-07T06:36:10;102221.13;;;8.99;100.00
62418;BME280;48456;54.242;10.280;2023-05-07T06:38:36;102211.50;;;9.01;100.00
62418;BME280;48456;54.242;10.280;2023-05-07T06:41:03;102209.97;;;9.09;100.00
62418;BME280;48456;54.242;10.280;2023-05-07T06:43:29;102213.41;;;9.06;100.00
62418;BME280;48456;54.242;10.280;2023-05-07T06:45:55;102209.91;;;9.07;100.00
62418;BME280;48456;54.242;10.280;2023-05-07T06:48:22;102210.91;;;9.13;100.00
62418;BME280;48456;54.242;10.280;2023-05-07T06:50:48;102214.56;;;9.18;100.00
62418;BME280;48456;54.242;10.280;2023-05-07T06:53:15;102205.84;;;9.20;100.00
62418;BME280;48456;54.242;10.280;2023-05-07T06:55:41;102209.25;;;9.16;100.00
62418;BME280;48456;54.242;10.280;2023-05-07T06:58:07;102207.75;;;9.28;100.00
62418;BME280;48456;54.242;10.280;2023-05-07T07:00:34;102199.34;;;9.44;100.00
62418;BME280;48456;54.242;10.280;2023-05-07T07:03:01;102203.31;;;9.65;100.00
62418;BME280;48456;54.242;10.280;2023-05-07T07:05:27;102201.69;;;9.72;100.00
62418;BME280;48456;54.242;10.280;2023-05-07T07:07:53;102211.56;;;9.79;100.00
62418;BME280;48456;54.242;10.280;2023-05-07T07:10:20;102204.47;;;9.77;100.00
62418;BME280;48456;54.242;10.280;2023-05-07T07:12:47;102205.44;;;9.82;100.00
62418;BME280;48456;54.242;10.280;2023-05-07T07:15:13;102205.69;;;9.94;100.00
62418;BME280;48456;54.242;10.280;2023-05-07T07:17:39;102209.22;;;9.93;100.00
62418;BME280;48456;54.242;10.280;2023-05-07T07:20:06;102207.78;;;10.09;100.00
62418;BME280;48456;54.242;10.280;2023-05-07T07:22:34;102211.44;;;10.16;100.00
62418;BME280;48456;54.242;10.280;2023-05-07T07:25:01;102211.44;;;10.16;100.00
62418;BME280;48456;54.242;10.280;2023-05-07T07:27:27;102219.41;;;10.18;100.00
62418;BME280;48456;54.242;10.280;2023-05-07T07:29:53;102216.09;;;10.30;100.00
62418;BME280;48456;54.242;10.280;2023-05-07T07:32:20;102215.59;;;10.48;100.00
62418;BME280;48456;54.242;10.280;2023-05-07T07:34:46;102212.31;;;10.61;100.00
62418;BME280;48456;54.242;10.280;2023-05-07T07:37:12;102210.94;;;10.84;100.00
62418;BME280;48456;54.242;10.280;2023-05-07T07:39:39;102213.63;;;10.85;100.00
62418;BME280;48456;54.242;10.280;2023-05-07T07:42:05;102208.88;;;10.67;100.00
62418;BME280;48456;54.242;10.280;2023-05-07T07:44:32;102208.56;;;10.50;100.00
62418;BME280;48456;54.242;10.280;2023-05-07T07:46:58;102214.66;;;10.44;100.00
62418;BME280;48456;54.242;10.280;2023-05-07T07:49:25;102210.38;;;10.51;100.00
62418;BME280;48456;54.242;10.280;2023-05-07T07:51:51;102214.88;;;10.57;100.00
62418;BME280;48456;54.242;10.280;2023-05-07T07:54:17;102215.63;;;10.49;100.00
62418;BME280;48456;54.242;10.280;2023-05-07T07:56:44;102216.88;;;10.70;100.00
62418;BME280;48456;54.242;10.280;2023-05-07T07:59:10;102224.81;;;10.69;100.00
62418;BME280;48456;54.242;10.280;2023-05-07T08:01:36;102224.09;;;10.79;100.00
62418;BME280;48456;54.242;10.280;2023-05-07T08:04:03;102213.63;;;10.85;100.00
62418;BME280;48456;54.242;10.280;2023-05-07T08:06:31;102222.50;;;10.89;100.00
62418;BME280;48456;54.242;10.280;2023-05-07T08:08:58;102223.25;;;10.80;100.00
62418;BME280;48456;54.242;10.280;2023-05-07T08:11:24;102211.00;;;10.88;100.00
62418;BME280;48456;54.242;10.280;2023-05-07T08:13:51;102216.28;;;10.88;100.00
62418;BME280;48456;54.242;10.280;2023-05-07T08:16:18;102209.31;;;10.92;100.00
62418;BME280;48456;54.242;10.280;2023-05-07T08:18:44;102204.16;;;11.01;100.00
62418;BME280;48456;54.242;10.280;2023-05-07T08:21:11;102200.84;;;11.15;100.00
62418;BME280;48456;54.242;10.280;2023-05-07T08:23:37;102204.38;;;11.14;100.00
62418;BME280;48456;54.242;10.280;2023-05-07T08:26:04;102211.09;;;10.93;100.00
62418;BME280;48456;54.242;10.280;2023-05-07T08:28:30;102206.00;;;11.05;100.00
62418;BME280;48456;54.242;10.280;2023-05-07T08:30:56;102210.50;;;11.11;100.00
62418;BME280;48456;54.242;10.280;2023-05-07T08:33:26;102217.63;;;11.14;100.00
62418;BME280;48456;54.242;10.280;2023-05-07T08:35:52;102215.09;;;11.23;100.00
62418;BME280;48456;54.242;10.280;2023-05-07T08:38:18;102204.66;;;11.33;100.00
62418;BME280;48456;54.242;10.280;2023-05-07T08:40:45;102222.06;;;11.16;100.00
62418;BME280;48456;54.242;10.280;2023-05-07T08:43:12;102221.16;;;11.16;100.00
62418;BME280;48456;54.242;10.280;2023-05-07T08:45:40;102213.38;;;11.24;100.00
62418;BME280;48456;54.242;10.280;2023-05-07T08:48:14;102214.38;;;11.32;100.00
62418;BME280;48456;54.242;10.280;2023-05-07T08:50:43;102221.16;;;11.16;100.00
62418;BME280;48456;54.242;10.280;2023-05-07T08:53:09;102222.19;;;11.24;100.00
62418;BME280;48456;54.242;10.280;2023-05-07T08:55:36;102215.97;;;11.22;100.00
62418;BME280;48456;54.242;10.280;2023-05-07T08:58:03;102228.56;;;11.37;100.00
62418;BME280;48456;54.242;10.280;2023-05-07T09:00:30;102236.63;;;11.45;100.00
62418;BME280;48456;54.242;10.280;2023-05-07T09:02:59;102229.53;;;11.42;100.00
62418;BME280;48456;54.242;10.280;2023-05-07T09:05:26;102226.00;;;11.43;100.00
62418;BME280;48456;54.242;10.280;2023-05-07T09:07:53;102223.63;;;11.62;100.00
62418;BME280;48456;54.242;10.280;2023-05-07T09:10:23;102229.09;;;11.73;100.00
62418;BME280;48456;54.242;10.280;2023-05-07T09:12:50;102228.56;;;12.01;100.00
62418;BME280;48456;54.242;10.280;2023-05-07T09:15:17;102230.59;;;12.22;100.00
62418;BME280;48456;54.242;10.280;2023-05-07T09:17:44;102242.06;;;12.16;100.00
62418;BME280;48456;54.242;10.280;2023-05-07T09:20:10;102234.34;;;12.37;100.00
62418;BME280;48456;54.242;10.280;2023-05-07T09:22:37;102237.16;;;12.55;100.00
62418;BME280;48456;54.242;10.280;2023-05-07T09:25:04;102244.25;;;12.56;100.00
62418;BME280;48456;54.242;10.280;2023-05-07T09:27:30;102239.78;;;12.49;100.00
62418;BME280;48456;54.242;10.280;2023-05-07T09:29:57;102246.91;;;12.55;100.00
62418;BME280;48456;54.242;10.280;2023-05-07T09:32:24;102246.13;;;12.65;100.00
62418;BME280;48456;54.242;10.280;2023-05-07T09:34:51;102237.16;;;12.55;100.00
62418;BME280;48456;54.242;10.280;2023-05-07T09:37:17;102253.22;;;12.66;100.00
62418;BME280;48456;54.242;10.280;2023-05-07T09:39:44;102241.97;;;12.95;100.00
62418;BME280;48456;54.242;10.280;2023-05-07T09:42:11;102232.38;;;13.13;100.00
62418;BME280;48456;54.242;10.280;2023-05-07T09:44:38;102246.22;;;12.74;100.00
62418;BME280;48456;54.242;10.280;2023-05-07T09:47:05;102234.84;;;12.90;100.00
62418;BME280;48456;54.242;10.280;2023-05-07T09:49:33;102240.16;;;12.90;100.00
62418;BME280;48456;54.242;10.280;2023-05-07T09:52:00;102235.91;;;13.10;100.00
62418;BME280;48456;54.242;10.280;2023-05-07T09:54:27;102233.47;;;13.38;100.00
62418;BME280;48456;54.242;10.280;2023-05-07T09:56:55;102226.47;;;13.51;100.00
62418;BME280;48456;54.242;10.280;2023-05-07T09:59:22;102230.13;;;13.71;100.00
62418;BME280;48456;54.242;10.280;2023-05-07T10:01:49;102236.38;;;13.77;100.00
62418;BME280;48456;54.242;10.280;2023-05-07T10:04:15;102225.81;;;13.92;100.00
62418;BME280;48456;54.242;10.280;2023-05-07T10:06:44;102219.63;;;13.91;100.00
62418;BME280;48456;54.242;10.280;2023-05-07T10:09:10;102219.63;;;13.97;100.00
62418;BME280;48456;54.242;10.280;2023-05-07T10:11:37;102224.09;;;14.03;100.00
62418;BME280;48456;54.242;10.280;2023-05-07T10:14:04;102232.09;;;14.05;100.00
62418;BME280;48456;54.242;10.280;2023-05-07T10:16:34;102230.34;;;14.11;100.00
62418;BME280;48456;54.242;10.280;2023-05-07T10:19:03;102220.63;;;14.26;100.00
62418;BME280;48456;54.242;10.280;2023-05-07T10:21:30;102220.50;;;13.93;100.00
62418;BME280;48456;54.242;10.280;2023-05-07T10:26:24;102225.75;;;13.77;100.00
62418;BME280;48456;54.242;10.280;2023-05-07T10:28:54;102224.00;;;13.81;100.00
62418;BME280;48456;54.242;10.280;2023-05-07T10:33:54;102217.75;;;13.70;100.00
62418;BME280;48456;54.242;10.280;2023-05-07T10:36:22;102227.56;;;13.85;100.00
62418;BME280;48456;54.242;10.280;2023-05-07T10:38:49;102218.75;;;14.00;100.00
62418;BME280;48456;54.242;10.280;2023-05-07T10:41:16;102232.16;;;14.17;100.00
62418;BME280;48456;54.242;10.280;2023-05-07T10:43:45;102225.06;;;14.24;100.00
62418;BME280;48456;54.242;10.280;2023-05-07T10:46:14;102230.41;;;14.30;100.00
62418;BME280;48456;54.242;10.280;2023-05-07T10:51:27;102234.03;;;14.62;100.00
62418;BME280;48456;54.242;10.280;2023-05-07T10:56:39;102215.16;;;16.16;100.00
62418;BME280;48456;54.242;10.280;2023-05-07T11:01:57;102223.13;;;16.22;100.00
62418;BME280;48456;54.242;10.280;2023-05-07T11:04:24;102212.13;;;16.74;100.00
62418;BME280;48456;54.242;10.280;2023-05-07T11:15:08;102198.53;;;17.08;100.00
62418;BME280;48456;54.242;10.280;2023-05-07T11:20:42;102203.19;;;16.83;100.00
62418;BME280;48456;54.242;10.280;2023-05-07T11:25:58;102209.06;;;15.81;100.00
62418;BME280;48456;54.242;10.280;2023-05-07T11:28:27;102194.09;;;16.99;100.00
62418;BME280;48456;54.242;10.280;2023-05-07T11:30:54;102201.16;;;18.59;100.00
62418;BME280;48456;54.242;10.280;2023-05-07T11:33:20;102182.47;;;20.01;100.00
62418;BME280;48456;54.242;10.280;2023-05-07T11:35:48;102187.66;;;20.50;100.00
62418;BME280;48456;54.242;10.280;2023-05-07T11:38:16;102190.22;;;20.93;100.00
62418;BME280;48456;54.242;10.280;2023-05-07T11:40:49;102211.41;;;20.67;100.00
62418;BME280;48456;54.242;10.280;2023-05-07T11:43:16;102193.81;;;20.92;100.00
62418;BME280;48456;54.242;10.280;2023-05-07T11:45:44;102197.31;;;21.30;100.00
62418;BME280;48456;54.242;10.280;2023-05-07T11:48:11;102201.09;;;20.86;100.00
62418;BME280;48456;54.242;10.280;2023-05-07T11:50:49;102199.94;;;20.22;100.00
62418;BME280;48456;54.242;10.280;2023-05-07T11:53:16;102188.59;;;20.08;100.00
62418;BME280;48456;54.242;10.280;2023-05-07T11:55:43;102202.88;;;20.10;100.00
62418;BME280;48456;54.242;10.280;2023-05-07T11:58:12;102192.13;;;20.11;100.00
62418;BME280;48456;54.242;10.280;2023-05-07T12:00:38;102201.44;;;20.72;100.00
62418;BME280;48456;54.242;10.280;2023-05-07T12:03:05;102188.72;;;21.15;100.00
62418;BME280;48456;54.242;10.280;2023-05-07T12:05:31;102186.47;;;20.62;100.00
62418;BME280;48456;54.242;10.280;2023-05-07T12:07:58;102176.91;;;20.85;100.00
62418;BME280;48456;54.242;10.280;2023-05-07T12:10:25;102177.81;;;21.22;100.00
62418;BME280;48456;54.242;10.280;2023-05-07T12:12:51;102182.53;;;21.77;97.78
62418;BME280;48456;54.242;10.280;2023-05-07T12:15:18;102183.00;;;21.28;99.20
62418;BME280;48456;54.242;10.280;2023-05-07T12:17:48;102173.47;;;22.67;86.14
62418;BME280;48456;54.242;10.280;2023-05-07T12:20:15;102185.66;;;22.79;85.59
62418;BME280;48456;54.242;10.280;2023-05-07T12:22:41;102194.28;;;22.63;84.60
62418;BME280;48456;54.242;10.280;2023-05-07T12:25:08;102185.56;;;21.33;93.74
62418;BME280;48456;54.242;10.280;2023-05-07T12:27:36;102189.19;;;20.60;100.00
62418;BME280;48456;54.242;10.280;2023-05-07T12:30:03;102182.09;;;19.76;100.00
62418;BME280;48456;54.242;10.280;2023-05-07T12:32:29;102197.38;;;20.16;100.00
62418;BME280;48456;54.242;10.280;2023-05-07T12:34:56;102181.41;;;20.86;100.00
62418;BME280;48456;54.242;10.280;2023-05-07T12:37:23;102186.34;;;20.29;100.00
62418;BME280;48456;54.242;10.280;2023-05-07T12:40:03;102195.41;;;19.80;100.00
62418;BME280;48456;54.242;10.280;2023-05-07T12:42:32;102188.50;;;19.22;100.00
62418;BME280;48456;54.242;10.280;2023-05-07T12:44:59;102193.03;;;19.19;100.00
62418;BME280;48456;54.242;10.280;2023-05-07T12:47:25;102194.03;;;18.58;100.00
62418;BME280;48456;54.242;10.280;2023-05-07T12:49:51;102189.59;;;19.12;100.00
62418;BME280;48456;54.242;10.280;2023-05-07T12:52:20;102187.81;;;19.11;100.00
62418;BME280;48456;54.242;10.280;2023-05-07T12:54:46;102185.44;;;19.43;100.00
62418;BME280;48456;54.242;10.280;2023-05-07T12:57:13;102189.03;;;20.29;100.00
62418;BME280;48456;54.242;10.280;2023-05-07T12:59:40;102186.94;;;20.42;100.00
62418;BME280;48456;54.242;10.280;2023-05-07T13:02:07;102200.59;;;20.32;100.00